createdAt,value
2018-12-27T00:01:46.894Z,2.20
2018-12-27T00:04:13.094Z,2.20
2018-12-27T00:06:39.311Z,2.40
2018-12-27T00:09:05.821Z,2.30
2018-12-27T00:11:32.087Z,2.30
2018-12-27T00:13:58.287Z,2.50
2018-12-27T00:16:24.514Z,2.30
2018-12-27T00:18:50.719Z,2.30
2018-12-27T00:21:16.963Z,2.30
2018-12-27T00:23:43.171Z,2.30
2018-12-27T00:26:09.374Z,2.30
2018-12-27T00:28:35.599Z,2.30
2018-12-27T00:31:01.819Z,2.20
2018-12-27T00:33:28.124Z,2.30
2018-12-27T00:35:54.416Z,2.30
2018-12-27T00:38:20.630Z,2.30
2018-12-27T00:40:46.859Z,2.40
2018-12-27T00:43:13.087Z,2.30
2018-12-27T00:45:39.350Z,2.30
2018-12-27T00:48:05.606Z,2.30
2018-12-27T00:50:31.810Z,2.30
2018-12-27T00:52:58.031Z,2.30
2018-12-27T00:55:29.166Z,2.30
2018-12-27T00:57:55.391Z,2.30
2018-12-27T01:00:21.698Z,2.30
2018-12-27T01:02:47.930Z,2.30
2018-12-27T01:05:14.134Z,2.30
2018-12-27T01:07:40.335Z,2.30
2018-12-27T01:10:06.554Z,2.30
2018-12-27T01:12:32.755Z,2.30
2018-12-27T01:14:58.978Z,2.30
2018-12-27T01:17:25.178Z,2.30
2018-12-27T01:19:51.476Z,2.30
2018-12-27T01:22:17.678Z,2.30
2018-12-27T01:24:43.911Z,2.30
2018-12-27T01:27:10.114Z,2.30
2018-12-27T01:29:36.341Z,2.30
2018-12-27T01:32:02.551Z,2.40
2018-12-27T01:34:28.766Z,2.40
2018-12-27T01:36:54.986Z,2.50
2018-12-27T01:39:21.206Z,2.40
2018-12-27T01:41:47.406Z,2.30
2018-12-27T01:44:13.611Z,2.30
2018-12-27T01:46:39.822Z,2.30
2018-12-27T01:49:06.019Z,2.30
2018-12-27T01:51:32.239Z,2.30
2018-12-27T01:53:58.439Z,2.30
2018-12-27T01:56:24.658Z,2.20
2018-12-27T01:58:50.869Z,2.20
2018-12-27T02:01:17.091Z,2.20
2018-12-27T02:03:43.290Z,2.10
2018-12-27T02:06:09.502Z,2.10
2018-12-27T02:08:35.796Z,2.10
2018-12-27T02:11:02.336Z,2.10
2018-12-27T02:13:28.530Z,2.10
2018-12-27T02:15:55.015Z,2.10
2018-12-27T02:18:21.218Z,2.00
2018-12-27T02:20:47.428Z,2.00
2018-12-27T02:23:13.651Z,2.10
2018-12-27T02:25:39.850Z,2.10
2018-12-27T02:28:06.075Z,2.10
2018-12-27T02:30:32.274Z,2.10
2018-12-27T02:32:58.498Z,2.10
2018-12-27T02:35:24.727Z,2.00
2018-12-27T02:37:50.943Z,2.00
2018-12-27T02:40:17.248Z,2.00
2018-12-27T02:42:43.466Z,2.10
2018-12-27T02:45:09.675Z,2.10
2018-12-27T02:47:35.926Z,2.10
2018-12-27T02:50:02.209Z,2.10
2018-12-27T02:52:28.463Z,2.10
2018-12-27T02:54:54.670Z,2.10
2018-12-27T02:57:20.866Z,2.10
2018-12-27T02:59:47.091Z,2.20
2018-12-27T03:02:13.299Z,2.10
2018-12-27T03:04:39.509Z,2.00
2018-12-27T03:07:05.706Z,2.00
2018-12-27T03:09:31.922Z,2.00
2018-12-27T03:11:58.126Z,1.90
2018-12-27T03:14:24.356Z,1.90
2018-12-27T03:16:50.564Z,2.00
2018-12-27T03:19:16.766Z,1.90
2018-12-27T03:21:42.986Z,1.90
2018-12-27T03:24:09.186Z,1.80
2018-12-27T03:26:44.014Z,1.80
2018-12-27T03:29:10.224Z,1.80
2018-12-27T03:31:36.468Z,1.80
2018-12-27T03:34:02.677Z,1.70
2018-12-27T03:36:48.763Z,1.70
2018-12-27T03:39:34.830Z,1.60
2018-12-27T03:42:20.919Z,1.60
2018-12-27T03:45:06.991Z,1.70
2018-12-27T03:47:53.074Z,1.70
2018-12-27T03:50:39.164Z,1.70
2018-12-27T03:53:25.251Z,1.70
2018-12-27T03:56:31.210Z,1.60
2018-12-27T03:59:17.387Z,1.50
2018-12-27T04:02:03.454Z,1.40
2018-12-27T04:04:49.542Z,1.50
2018-12-27T04:07:35.611Z,1.30
2018-12-27T04:10:21.703Z,1.40
2018-12-27T04:13:07.767Z,1.40
2018-12-27T04:15:53.861Z,1.30
2018-12-27T04:18:40.013Z,1.20
2018-12-27T04:21:26.103Z,1.30
2018-12-27T04:24:12.763Z,1.20
2018-12-27T04:26:58.862Z,1.30
2018-12-27T04:29:44.928Z,1.20
2018-12-27T04:32:24.489Z,1.30
2018-12-27T04:35:01.848Z,1.20
2018-12-27T04:37:48.014Z,1.30
2018-12-27T04:40:34.092Z,1.20
2018-12-27T04:43:20.303Z,1.20
2018-12-27T04:46:06.366Z,1.10
2018-12-27T04:48:52.458Z,1.20
2018-12-27T04:51:38.523Z,1.20
2018-12-27T04:54:24.612Z,1.20
2018-12-27T04:57:10.683Z,1.10
2018-12-27T04:59:56.788Z,1.30
2018-12-27T05:02:42.851Z,1.20
2018-12-27T05:05:28.945Z,1.30
2018-12-27T05:08:15.016Z,1.20
2018-12-27T05:11:01.163Z,1.20
2018-12-27T05:13:47.235Z,1.20
2018-12-27T05:16:33.331Z,1.20
2018-12-27T05:19:19.403Z,1.20
2018-12-27T05:22:05.497Z,1.20
2018-12-27T05:24:51.560Z,1.20
2018-12-27T05:27:30.805Z,1.10
2018-12-27T05:30:10.814Z,1.10
2018-12-27T05:32:50.663Z,1.10
2018-12-27T05:35:30.733Z,1.20
2018-12-27T05:38:09.813Z,1.00
2018-12-27T05:40:49.855Z,1.10
2018-12-27T05:43:29.839Z,1.10
2018-12-27T05:46:08.876Z,1.10
2018-12-27T05:48:48.653Z,1.10
2018-12-27T05:51:28.617Z,1.10
2018-12-27T05:54:08.450Z,1.00
2018-12-27T05:56:45.695Z,1.00
2018-12-27T05:59:31.762Z,1.10
2018-12-27T06:02:17.851Z,1.10
2018-12-27T06:05:03.974Z,1.10
2018-12-27T06:07:50.223Z,1.00
2018-12-27T06:10:36.296Z,0.90
2018-12-27T06:13:22.506Z,0.80
2018-12-27T06:16:08.714Z,0.70
2018-12-27T06:18:55.324Z,0.90
2018-12-27T06:21:41.757Z,0.80
2018-12-27T06:24:21.401Z,0.70
2018-12-27T06:27:00.578Z,0.90
2018-12-27T06:29:40.535Z,0.90
2018-12-27T06:32:20.460Z,0.80
2018-12-27T06:35:00.397Z,0.80
2018-12-27T06:37:40.382Z,0.70
2018-12-27T06:40:20.240Z,0.80
2018-12-27T06:42:59.434Z,0.70
2018-12-27T06:45:38.606Z,0.80
2018-12-27T06:48:18.523Z,0.60
2018-12-27T06:50:57.719Z,0.80
2018-12-27T06:53:37.732Z,0.80
2018-12-27T06:56:17.651Z,0.70
2018-12-27T06:58:57.682Z,0.70
2018-12-27T07:01:37.475Z,0.60
2018-12-27T07:04:16.698Z,0.60
2018-12-27T07:06:56.735Z,0.60
2018-12-27T07:09:36.718Z,0.60
2018-12-27T07:12:15.855Z,0.50
2018-12-27T07:14:53.060Z,0.50
2018-12-27T07:17:39.239Z,0.50
2018-12-27T07:20:25.303Z,0.50
2018-12-27T07:23:11.401Z,0.50
2018-12-27T07:25:57.586Z,0.50
2018-12-27T07:28:43.772Z,0.50
2018-12-27T07:31:29.956Z,0.60
2018-12-27T07:34:16.068Z,0.50
2018-12-27T07:37:02.137Z,0.60
2018-12-27T07:39:48.223Z,0.70
2018-12-27T07:42:34.295Z,0.80
2018-12-27T07:45:20.394Z,0.80
2018-12-27T07:48:06.486Z,0.90
2018-12-27T07:50:52.552Z,0.90
2018-12-27T07:53:38.638Z,0.90
2018-12-27T07:56:24.702Z,0.90
2018-12-27T07:59:10.799Z,1.00
2018-12-27T08:01:56.866Z,1.00
2018-12-27T08:04:42.959Z,1.10
2018-12-27T08:07:09.154Z,1.20
2018-12-27T08:09:55.239Z,1.10
2018-12-27T08:12:34.769Z,1.10
2018-12-27T08:15:14.096Z,1.20
2018-12-27T08:17:53.196Z,1.30
2018-12-27T08:20:32.375Z,1.30
2018-12-27T08:23:12.491Z,1.40
2018-12-27T08:25:52.520Z,1.40
2018-12-27T08:28:32.502Z,1.40
2018-12-27T08:31:12.449Z,1.60
2018-12-27T08:33:51.553Z,1.60
2018-12-27T08:36:30.686Z,1.60
2018-12-27T08:39:10.750Z,1.70
2018-12-27T08:41:50.092Z,1.70
2018-12-27T08:44:29.244Z,2.00
2018-12-27T08:47:09.275Z,2.00
2018-12-27T08:49:49.129Z,2.00
2018-12-27T08:52:29.232Z,2.10
2018-12-27T08:55:09.074Z,2.10
2018-12-27T08:57:46.407Z,2.20
2018-12-27T09:00:32.586Z,2.20
2018-12-27T09:03:18.688Z,2.30
2018-12-27T09:06:04.761Z,2.30
2018-12-27T09:08:41.971Z,2.30
2018-12-27T09:11:28.118Z,2.40
2018-12-27T09:14:14.198Z,2.40
2018-12-27T09:17:00.275Z,2.50
2018-12-27T09:19:46.359Z,2.60
2018-12-27T09:22:32.567Z,2.50
2018-12-27T09:25:18.656Z,2.60
2018-12-27T09:28:04.941Z,2.50
2018-12-27T09:30:51.134Z,2.50
2018-12-27T09:33:17.626Z,2.60
2018-12-27T09:36:08.631Z,2.60
2018-12-27T09:38:34.839Z,2.80
2018-12-27T09:41:01.050Z,2.90
2018-12-27T09:43:27.266Z,2.90
2018-12-27T09:45:53.486Z,2.90
2018-12-27T09:48:19.690Z,3.00
2018-12-27T09:50:45.914Z,3.00
2018-12-27T09:53:12.120Z,3.10
2018-12-27T09:55:38.318Z,3.20
2018-12-27T09:58:04.838Z,3.20
2018-12-27T10:00:31.042Z,3.40
2018-12-27T10:02:57.283Z,3.40
2018-12-27T10:05:23.691Z,3.50
2018-12-27T10:07:49.927Z,3.60
2018-12-27T10:10:16.134Z,3.60
2018-12-27T10:12:42.355Z,3.70
2018-12-27T10:15:08.761Z,3.70
2018-12-27T10:17:34.978Z,3.90
2018-12-27T10:20:01.181Z,4.00
2018-12-27T10:22:27.510Z,4.00
2018-12-27T10:24:53.711Z,3.90
2018-12-27T10:27:19.926Z,4.00
2018-12-27T10:29:46.233Z,3.90
2018-12-27T10:32:15.451Z,4.00
2018-12-27T10:34:41.675Z,4.00
2018-12-27T10:37:07.874Z,4.10
2018-12-27T10:39:34.098Z,4.20
2018-12-27T10:42:02.967Z,4.30
2018-12-27T10:44:29.186Z,4.30
2018-12-27T10:46:55.398Z,4.30
2018-12-27T10:49:21.628Z,4.40
2018-12-27T10:51:47.832Z,4.60
2018-12-27T10:54:14.056Z,4.50
2018-12-27T10:56:40.255Z,4.60
2018-12-27T10:59:06.497Z,4.60
2018-12-27T11:01:32.703Z,4.60
2018-12-27T11:03:58.910Z,4.70
2018-12-27T11:06:25.131Z,4.70
2018-12-27T11:08:51.586Z,4.80
2018-12-27T11:11:17.853Z,4.80
2018-12-27T11:13:44.110Z,4.90
2018-12-27T11:16:10.335Z,4.90
2018-12-27T11:18:36.542Z,5.00
2018-12-27T11:21:02.762Z,5.10
2018-12-27T11:23:29.012Z,5.20
2018-12-27T11:25:55.226Z,5.20
2018-12-27T11:28:21.439Z,5.30
2018-12-27T11:30:47.679Z,5.30
2018-12-27T11:33:13.994Z,5.50
2018-12-27T11:35:40.190Z,5.60
2018-12-27T11:38:06.410Z,5.70
2018-12-27T11:40:32.627Z,5.80
2018-12-27T11:42:58.842Z,5.90
2018-12-27T11:45:43.339Z,5.90
2018-12-27T11:48:09.669Z,5.90
2018-12-27T11:50:35.883Z,5.90
2018-12-27T11:53:04.937Z,5.90
2018-12-27T11:55:31.558Z,6.00
2018-12-27T11:57:57.787Z,6.10
2018-12-27T12:00:23.995Z,6.10
2018-12-27T12:02:50.208Z,5.90
2018-12-27T12:05:16.435Z,6.00
2018-12-27T12:07:42.646Z,5.90
2018-12-27T12:10:09.199Z,6.00
2018-12-27T12:12:35.394Z,6.10
2018-12-27T12:15:02.926Z,6.10
2018-12-27T12:17:29.135Z,6.10
2018-12-27T12:19:55.798Z,6.10
2018-12-27T12:22:22.003Z,6.20
2018-12-27T12:24:48.250Z,6.30
2018-12-27T12:27:14.470Z,6.30
2018-12-27T12:29:40.675Z,6.30
2018-12-27T12:32:07.798Z,6.40
2018-12-27T12:34:34.011Z,6.40
2018-12-27T12:37:00.531Z,6.30
2018-12-27T12:39:26.740Z,6.40
2018-12-27T12:41:52.974Z,6.30
2018-12-27T12:44:19.243Z,6.30
2018-12-27T12:47:05.331Z,6.30
2018-12-27T12:49:31.735Z,6.40
2018-12-27T12:52:00.746Z,6.30
2018-12-27T12:54:26.960Z,6.30
2018-12-27T12:56:53.211Z,6.30
2018-12-27T12:59:19.618Z,6.40
2018-12-27T13:01:45.838Z,6.40
2018-12-27T13:04:12.368Z,6.50
2018-12-27T13:06:38.890Z,6.50
2018-12-27T13:09:05.703Z,6.40
2018-12-27T13:11:31.935Z,6.50
2018-12-27T13:13:58.148Z,6.70
2018-12-27T13:16:24.341Z,6.70
2018-12-27T13:18:50.558Z,7.00
2018-12-27T13:21:16.758Z,7.10
2018-12-27T13:23:42.983Z,7.00
2018-12-27T13:26:09.187Z,7.10
2018-12-27T13:28:35.402Z,7.00
2018-12-27T13:31:01.618Z,7.00
2018-12-27T13:33:27.862Z,7.00
2018-12-27T13:35:54.164Z,7.10
2018-12-27T13:38:20.440Z,7.10
2018-12-27T13:40:46.660Z,7.30
2018-12-27T13:43:13.036Z,7.20
2018-12-27T13:45:39.386Z,7.30
2018-12-27T13:48:08.188Z,7.20
2018-12-27T13:50:34.401Z,7.00
2018-12-27T13:53:00.608Z,6.70
2018-12-27T13:55:26.827Z,6.60
2018-12-27T13:57:53.021Z,6.70
2018-12-27T14:00:19.247Z,6.70
2018-12-27T14:02:45.450Z,6.70
2018-12-27T14:05:11.674Z,6.60
2018-12-27T14:07:37.895Z,6.50
2018-12-27T14:10:06.419Z,6.60
2018-12-27T14:12:32.622Z,6.50
2018-12-27T14:14:58.824Z,6.40
2018-12-27T14:17:25.042Z,6.40
2018-12-27T14:19:51.263Z,6.50
2018-12-27T14:22:17.477Z,6.50
2018-12-27T14:24:43.689Z,6.40
2018-12-27T14:27:10.107Z,6.40
2018-12-27T14:29:36.306Z,6.40
2018-12-27T14:32:02.527Z,6.50
2018-12-27T14:34:28.730Z,6.40
2018-12-27T14:36:54.956Z,6.30
2018-12-27T14:39:21.159Z,6.30
2018-12-27T14:41:47.370Z,6.30
2018-12-27T14:44:14.446Z,6.10
2018-12-27T14:46:40.840Z,6.00
2018-12-27T14:49:07.079Z,5.90
2018-12-27T14:51:33.353Z,5.90
2018-12-27T14:53:59.554Z,5.80
2018-12-27T14:56:25.786Z,5.80
2018-12-27T14:58:52.003Z,5.70
2018-12-27T15:01:18.197Z,5.60
2018-12-27T15:03:44.420Z,5.70
2018-12-27T15:06:10.634Z,5.70
2018-12-27T15:08:36.859Z,5.70
2018-12-27T15:11:03.066Z,5.70
2018-12-27T15:13:29.286Z,5.60
2018-12-27T15:15:55.486Z,5.60
2018-12-27T15:18:21.702Z,5.70
2018-12-27T15:20:47.914Z,5.70
2018-12-27T15:23:14.143Z,5.70
2018-12-27T15:25:40.386Z,5.50
2018-12-27T15:28:06.666Z,5.30
2018-12-27T15:30:32.911Z,5.30
2018-12-27T15:32:59.222Z,5.30
2018-12-27T15:35:25.448Z,5.20
2018-12-27T15:37:51.650Z,5.10
2018-12-27T15:40:18.162Z,5.10
2018-12-27T15:42:44.367Z,5.00
2018-12-27T15:45:10.592Z,4.90
2018-12-27T15:47:36.895Z,4.90
2018-12-27T15:50:05.427Z,4.80
2018-12-27T15:52:31.774Z,4.80
2018-12-27T15:54:58.196Z,4.80
2018-12-27T15:57:24.710Z,4.80
2018-12-27T16:00:04.563Z,4.70
2018-12-27T16:02:30.775Z,4.90
2018-12-27T16:04:57.003Z,4.90
2018-12-27T16:07:23.550Z,4.90
2018-12-27T16:09:49.813Z,4.70
2018-12-27T16:12:16.032Z,4.70
2018-12-27T16:14:44.538Z,4.60
2018-12-27T16:17:10.479Z,4.50
2018-12-27T16:19:36.674Z,4.40
2018-12-27T16:22:02.890Z,4.30
2018-12-27T16:24:29.112Z,4.30
2018-12-27T16:26:55.419Z,4.40
2018-12-27T16:29:21.748Z,4.30
2018-12-27T16:31:47.974Z,4.20
2018-12-27T16:34:14.241Z,4.10
2018-12-27T16:36:40.899Z,4.20
2018-12-27T16:39:07.205Z,4.10
2018-12-27T16:41:33.526Z,4.10
2018-12-27T16:43:59.737Z,4.00
2018-12-27T16:46:25.955Z,4.00
2018-12-27T16:48:52.154Z,3.90
2018-12-27T16:51:18.382Z,3.90
2018-12-27T16:53:44.578Z,3.80
2018-12-27T16:56:10.995Z,3.80
2018-12-27T16:58:37.270Z,3.80
2018-12-27T17:01:03.499Z,3.80
2018-12-27T17:03:30.046Z,3.90
2018-12-27T17:05:56.251Z,3.80
2018-12-27T17:08:22.475Z,3.80
2018-12-27T17:10:48.717Z,3.80
2018-12-27T17:13:15.067Z,3.70
2018-12-27T17:15:41.302Z,3.70
2018-12-27T17:18:07.851Z,3.70
2018-12-27T17:20:34.075Z,3.70
2018-12-27T17:23:00.275Z,3.70
2018-12-27T17:25:26.504Z,3.70
2018-12-27T17:27:52.709Z,3.70
2018-12-27T17:30:18.926Z,3.70
2018-12-27T17:32:45.206Z,3.70
2018-12-27T17:35:31.442Z,3.70
2018-12-27T17:38:17.519Z,3.70
2018-12-27T17:41:03.611Z,3.80
2018-12-27T17:43:49.687Z,3.80
2018-12-27T17:46:35.779Z,3.80
2018-12-27T17:49:21.855Z,3.70
2018-12-27T17:52:07.939Z,3.80
2018-12-27T17:54:34.256Z,3.80
2018-12-27T17:57:20.343Z,3.70
2018-12-27T18:00:00.337Z,3.60
2018-12-27T18:02:39.905Z,3.50
2018-12-27T18:05:19.725Z,3.80
2018-12-27T18:07:59.903Z,3.80
2018-12-27T18:10:40.829Z,3.60
2018-12-27T18:13:19.979Z,3.80
2018-12-27T18:16:19.247Z,3.80
2018-12-27T18:18:58.508Z,3.80
2018-12-27T18:21:35.667Z,3.80
2018-12-27T18:24:21.755Z,3.80
2018-12-27T18:27:07.827Z,3.90
2018-12-27T18:29:54.004Z,3.90
2018-12-27T18:32:40.195Z,4.10
2018-12-27T18:35:26.284Z,3.90
2018-12-27T18:38:12.359Z,4.00
2018-12-27T18:40:58.448Z,3.90
2018-12-27T18:43:44.514Z,3.90
2018-12-27T18:46:30.599Z,3.90
2018-12-27T18:49:20.584Z,4.00
2018-12-27T18:52:24.563Z,3.90
2018-12-27T18:55:10.643Z,3.90
2018-12-27T18:57:36.846Z,3.80
2018-12-27T19:00:16.355Z,3.90
2018-12-27T19:02:55.821Z,4.00
2018-12-27T19:05:36.130Z,4.10
2018-12-27T19:08:15.854Z,4.10
2018-12-27T19:10:55.889Z,4.00
2018-12-27T19:13:35.835Z,4.00
2018-12-27T19:16:15.231Z,3.80
2018-12-27T19:18:55.047Z,3.90
2018-12-27T19:21:34.099Z,3.90
2018-12-27T19:24:14.161Z,4.00
2018-12-27T19:26:51.387Z,3.90
2018-12-27T19:29:37.598Z,3.90
2018-12-27T19:32:23.694Z,3.80
2018-12-27T19:35:09.756Z,3.80
2018-12-27T19:37:55.839Z,3.80
2018-12-27T19:40:41.917Z,3.80
2018-12-27T19:43:47.922Z,3.80
2018-12-27T19:46:53.891Z,3.80
2018-12-27T19:49:39.987Z,3.80
2018-12-27T19:52:26.075Z,3.80
2018-12-27T19:55:12.139Z,3.70
2018-12-27T19:57:51.314Z,3.80
2018-12-27T20:00:31.388Z,3.70
2018-12-27T20:03:11.430Z,3.70
2018-12-27T20:05:48.656Z,3.80
2018-12-27T20:08:34.739Z,3.70
2018-12-27T20:11:20.803Z,3.60
2018-12-27T20:14:06.891Z,3.60
2018-12-27T20:16:52.979Z,3.70
2018-12-27T20:19:39.080Z,3.70
2018-12-27T20:22:25.198Z,3.70
2018-12-27T20:25:11.305Z,3.80
2018-12-27T20:27:57.387Z,3.70
2018-12-27T20:30:43.475Z,3.70
2018-12-27T20:33:29.623Z,3.70
2018-12-27T20:36:15.716Z,3.80
2018-12-27T20:39:02.296Z,3.80
2018-12-27T20:41:48.395Z,3.80
2018-12-27T20:44:34.475Z,3.70
2018-12-27T20:47:20.562Z,3.80
2018-12-27T20:50:06.635Z,3.60
2018-12-27T20:52:52.802Z,3.60
2018-12-27T20:55:38.898Z,3.60
2018-12-27T20:58:24.986Z,3.60
2018-12-27T21:01:11.076Z,3.70
2018-12-27T21:03:57.163Z,3.70
2018-12-27T21:06:43.283Z,3.70
2018-12-27T21:09:29.366Z,3.60
2018-12-27T21:12:35.360Z,3.60
2018-12-27T21:15:21.426Z,3.70
2018-12-27T21:18:07.620Z,3.50
2018-12-27T21:20:53.743Z,3.60
2018-12-27T21:23:39.842Z,3.70
2018-12-27T21:26:25.930Z,3.70
2018-12-27T21:29:12.023Z,3.60
2018-12-27T21:31:58.128Z,3.60
2018-12-27T21:34:44.201Z,3.60
2018-12-27T21:37:30.287Z,3.60
2018-12-27T21:40:16.352Z,3.60
2018-12-27T21:43:02.542Z,3.70
2018-12-27T21:45:48.635Z,3.60
2018-12-27T21:48:34.727Z,3.70
2018-12-27T21:51:20.798Z,3.70
2018-12-27T21:54:06.891Z,3.70
2018-12-27T21:56:46.735Z,3.70
2018-12-27T21:59:25.835Z,3.80
2018-12-27T22:02:04.964Z,3.70
2018-12-27T22:04:44.239Z,3.70
2018-12-27T22:07:24.047Z,3.70
2018-12-27T22:10:03.206Z,3.70
2018-12-27T22:12:29.434Z,3.60
2018-12-27T22:15:15.767Z,3.60
2018-12-27T22:18:01.841Z,3.70
2018-12-27T22:20:47.923Z,3.80
2018-12-27T22:23:34.011Z,3.80
2018-12-27T22:26:20.103Z,3.70
2018-12-27T22:29:06.175Z,3.70
2018-12-27T22:31:52.283Z,3.60
2018-12-27T22:34:38.356Z,3.60
2018-12-27T22:37:24.700Z,3.50
2018-12-27T22:40:10.874Z,3.50
2018-12-27T22:42:56.966Z,3.50
2018-12-27T22:46:02.992Z,3.40
2018-12-27T22:48:49.123Z,3.40
2018-12-27T22:51:35.220Z,3.40
2018-12-27T22:54:21.534Z,3.40
2018-12-27T22:57:01.471Z,3.40
2018-12-27T23:00:00.611Z,3.40
2018-12-27T23:02:39.775Z,3.60
2018-12-27T23:05:19.008Z,3.50
2018-12-27T23:07:58.924Z,3.50
2018-12-27T23:10:38.899Z,3.50
2018-12-27T23:13:18.921Z,3.30
2018-12-27T23:15:58.995Z,3.50
2018-12-27T23:18:38.932Z,3.50
2018-12-27T23:21:18.926Z,3.50
2018-12-27T23:23:56.171Z,3.40
2018-12-27T23:26:42.244Z,3.40
2018-12-27T23:29:28.350Z,3.40
2018-12-27T23:32:14.423Z,3.50
2018-12-27T23:34:40.656Z,3.40
2018-12-27T23:37:06.867Z,3.40
2018-12-27T23:39:33.083Z,3.30
2018-12-27T23:41:59.283Z,3.30
2018-12-27T23:44:25.483Z,3.40
2018-12-27T23:46:51.702Z,3.40
2018-12-27T23:49:17.902Z,3.40
2018-12-27T23:51:44.127Z,3.30
2018-12-27T23:54:10.335Z,3.20
2018-12-27T23:56:36.598Z,3.00
2018-12-27T23:59:02.943Z,3.00
